Boswell, Arkansas
Current Conditions -  °F | °C
As of 3:15 PM on Monday 22 Dec 2014 (Local Time) from KBVX Reporting Station
Overcast Overcast  
Wind Chill: 54°   Ceiling: 600
Heat Index: 54°   Visibility: 5mi
Dew Point: 48°   Wind: 6mph
Humidity: 82%   Direction: 160°SSE
Pressure: 29.56"   Gusts: NA
Location:  36.04°N, 92.06°W
Report Text: KBVX 222115Z AUTO 16005KT 5SM OVC006 12/09 A2956 RMK AO1
Loading
Personal Weather Stations






























Interactive Weather Map New forecast layout! Learn more

10-Day Weather Forecast

Advertisements
Track Severe Weather on mobile